Aviation Digital Data Service (ADDS)

Output produced by METARs form (2339 UTC 23 May 2022)
found at http://www.aviationweather.gov/metar/data/
 
DBBB 232300Z 08008KT 7000 -TSRA FEW004 BKN011 FEW022CB 25/24 Q1015 TEMPO 3500 TSRA
TAF DBBB 232300Z 2400/2506 10010KT 8000 -TSRA BKN010 FEW023CB 
     BECMG 2402/2404 20010KT NSW SCT012 
     TEMPO 2414/2420 TS BKN012 FEW023CB